createdAt,value
2022-09-07T00:02:22.554Z,21.31
2022-09-07T00:04:49.276Z,21.11
2022-09-07T00:07:15.905Z,20.97
2022-09-07T00:09:42.719Z,20.86
2022-09-07T00:12:09.976Z,20.31
2022-09-07T00:14:36.692Z,20.30
2022-09-07T00:17:03.450Z,20.94
2022-09-07T00:19:30.174Z,20.87
2022-09-07T00:21:56.820Z,20.41
2022-09-07T00:24:23.464Z,20.47
2022-09-07T00:26:50.161Z,20.14
2022-09-07T00:29:16.805Z,20.50
2022-09-07T00:31:43.622Z,20.80
2022-09-07T00:34:10.326Z,20.88
2022-09-07T00:36:37.053Z,20.28
2022-09-07T00:39:04.404Z,20.50
2022-09-07T00:41:31.473Z,20.63
2022-09-07T00:44:19.624Z,20.74
2022-09-07T00:46:47.024Z,20.39
2022-09-07T00:49:17.903Z,20.61
2022-09-07T00:51:57.959Z,19.84
2022-09-07T00:54:28.870Z,19.90
2022-09-07T00:56:55.761Z,20.18
2022-09-07T00:59:26.801Z,19.91
2022-09-07T01:01:56.749Z,19.64
2022-09-07T01:04:24.125Z,20.43
2022-09-07T01:06:51.060Z,19.69
2022-09-07T01:09:22.314Z,20.42
2022-09-07T01:11:51.299Z,20.29
2022-09-07T01:14:29.018Z,20.25
2022-09-07T01:17:10.831Z,20.26
2022-09-07T01:20:06.671Z,20.81
2022-09-07T01:22:55.981Z,20.33
2022-09-07T01:25:41.519Z,20.55
2022-09-07T01:28:23.609Z,20.50
2022-09-07T01:31:30.186Z,20.69
2022-09-07T01:34:25.227Z,19.84
2022-09-07T01:37:16.749Z,20.43
2022-09-07T01:39:58.749Z,19.46
2022-09-07T01:42:32.541Z,20.03
2022-09-07T01:45:04.619Z,19.98
2022-09-07T01:47:47.046Z,19.85
2022-09-07T01:50:21.351Z,20.67
2022-09-07T01:52:55.137Z,20.66
2022-09-07T01:55:29.617Z,20.40
2022-09-07T01:58:19.603Z,20.36
2022-09-07T02:00:53.443Z,20.28
2022-09-07T02:03:22.839Z,19.59
2022-09-07T02:05:59.293Z,19.75
2022-09-07T02:08:32.243Z,19.71
2022-09-07T02:11:12.466Z,19.66
2022-09-07T02:13:46.295Z,20.35
2022-09-07T02:16:19.319Z,19.89
2022-09-07T02:18:51.132Z,20.37
2022-09-07T02:21:24.159Z,20.35
2022-09-07T02:23:56.972Z,20.04
2022-09-07T02:26:27.835Z,19.41
2022-09-07T02:28:54.841Z,19.91
2022-09-07T02:31:21.525Z,20.00
2022-09-07T02:33:48.789Z,19.96
2022-09-07T02:36:20.314Z,20.16
2022-09-07T02:38:47.110Z,20.17
2022-09-07T02:41:34.273Z,20.23
2022-09-07T02:44:10.442Z,20.43
2022-09-07T02:47:06.479Z,20.38
2022-09-07T02:49:55.568Z,19.65
2022-09-07T02:52:59.857Z,20.38
2022-09-07T02:55:43.481Z,20.14
2022-09-07T02:58:19.281Z,20.24
2022-09-07T03:00:54.245Z,20.34
2022-09-07T03:03:54.605Z,20.06
2022-09-07T03:06:39.096Z,19.94
2022-09-07T03:09:11.188Z,19.46
2022-09-07T03:11:39.109Z,19.96
2022-09-07T03:14:13.860Z,19.43
2022-09-07T03:16:40.669Z,20.05
2022-09-07T03:19:07.709Z,20.27
2022-09-07T03:21:34.479Z,19.99
2022-09-07T03:24:01.392Z,20.18
2022-09-07T03:26:28.326Z,20.16
2022-09-07T03:28:55.243Z,19.87
2022-09-07T03:31:22.159Z,19.54
2022-09-07T03:33:49.025Z,19.65
2022-09-07T03:36:15.710Z,19.52
2022-09-07T03:38:42.423Z,19.62
2022-09-07T03:41:09.104Z,19.43
2022-09-07T03:43:36.040Z,19.75
2022-09-07T03:46:05.542Z,20.65
2022-09-07T03:48:34.811Z,20.08
2022-09-07T03:51:10.095Z,20.86
2022-09-07T03:53:44.936Z,20.57
2022-09-07T03:56:18.240Z,20.43
2022-09-07T03:58:46.593Z,20.64
2022-09-07T04:01:16.020Z,20.38
2022-09-07T04:03:44.266Z,21.16
2022-09-07T04:06:11.153Z,21.50
2022-09-07T04:08:39.216Z,20.40
2022-09-07T04:11:12.537Z,20.34
2022-09-07T04:13:39.540Z,20.82
2022-09-07T04:16:25.955Z,20.28
2022-09-07T04:18:57.687Z,20.87
2022-09-07T04:21:26.669Z,20.71
2022-09-07T04:23:54.146Z,20.83
2022-09-07T04:26:22.261Z,20.71
2022-09-07T04:28:49.371Z,20.43
2022-09-07T04:31:17.985Z,20.10
2022-09-07T04:33:46.022Z,20.17
2022-09-07T04:36:13.061Z,20.22
2022-09-07T04:38:40.133Z,20.09
2022-09-07T04:41:13.249Z,19.73
2022-09-07T04:43:40.724Z,19.71
2022-09-07T04:46:21.919Z,20.69
2022-09-07T04:48:53.009Z,20.97
2022-09-07T04:51:21.283Z,20.60
2022-09-07T04:53:50.497Z,19.96
2022-09-07T04:56:18.450Z,20.07
2022-09-07T04:58:46.055Z,19.42
2022-09-07T05:01:15.288Z,20.40
2022-09-07T05:03:42.308Z,20.36
2022-09-07T05:06:10.494Z,20.73
2022-09-07T05:08:39.171Z,20.55
2022-09-07T05:11:06.087Z,21.29
2022-09-07T05:13:32.846Z,21.27
2022-09-07T05:16:00.782Z,21.46
2022-09-07T05:18:27.731Z,21.48
2022-09-07T05:20:54.412Z,21.28
2022-09-07T05:23:22.456Z,21.80
2022-09-07T05:25:49.122Z,21.80
2022-09-07T05:28:19.264Z,21.49
2022-09-07T05:36:21.100Z,21.25
2022-09-07T05:38:47.900Z,21.57
2022-09-07T05:41:17.289Z,20.34
2022-09-07T05:46:32.407Z,20.74
2022-09-07T05:49:00.777Z,21.20
2022-09-07T05:51:27.532Z,20.20
2022-09-07T05:53:58.827Z,20.91
2022-09-07T05:56:25.993Z,21.15
2022-09-07T05:58:52.646Z,21.47
2022-09-07T06:01:19.616Z,20.67
2022-09-07T06:03:46.369Z,20.05
2022-09-07T06:06:15.748Z,20.62
2022-09-07T06:08:53.558Z,20.47
2022-09-07T06:11:22.527Z,20.48
2022-09-07T06:13:49.687Z,20.60
2022-09-07T06:16:18.688Z,21.37
2022-09-07T06:18:47.680Z,21.30
2022-09-07T06:21:21.540Z,20.93
2022-09-07T06:23:49.905Z,20.16
2022-09-07T06:26:17.442Z,21.33
2022-09-07T06:28:49.236Z,21.53
2022-09-07T06:31:19.594Z,21.01
2022-09-07T06:33:50.106Z,20.45
2022-09-07T06:36:22.093Z,20.61
2022-09-07T06:38:50.067Z,20.03
2022-09-07T06:44:18.008Z,19.76
2022-09-07T06:49:31.245Z,19.72
2022-09-07T06:51:58.025Z,20.93
2022-09-07T06:57:11.189Z,21.57
2022-09-07T06:59:38.438Z,20.92
2022-09-07T07:02:06.726Z,20.36
2022-09-07T07:04:39.507Z,20.22
2022-09-07T07:07:12.585Z,20.35
2022-09-07T07:09:40.090Z,19.92
2022-09-07T07:12:07.034Z,20.32
2022-09-07T07:14:37.251Z,21.04
2022-09-07T07:17:06.585Z,20.98
2022-09-07T07:19:33.251Z,21.29
2022-09-07T07:22:35.957Z,20.34
2022-09-07T07:24:46.594Z,20.62
2022-09-07T07:27:13.377Z,21.10
2022-09-07T07:29:40.058Z,20.93
2022-09-07T07:32:06.724Z,20.96
2022-09-07T07:34:33.354Z,20.61
2022-09-07T07:37:00.109Z,20.84
2022-09-07T07:42:13.496Z,20.27
2022-09-07T07:44:40.177Z,20.64
2022-09-07T07:47:07.041Z,20.57
2022-09-07T07:49:33.744Z,20.55
2022-09-07T07:54:47.084Z,20.51
2022-09-07T07:57:14.141Z,20.16
2022-09-07T07:59:40.790Z,20.34
2022-09-07T08:02:10.113Z,20.95
2022-09-07T08:04:36.923Z,20.24
2022-09-07T08:07:09.630Z,20.54
2022-09-07T08:09:37.287Z,20.32
2022-09-07T08:12:04.084Z,20.16
2022-09-07T08:14:30.878Z,20.15
2022-09-07T08:16:57.480Z,20.11
2022-09-07T08:19:24.043Z,20.13
2022-09-07T08:21:50.650Z,19.68
2022-09-07T08:24:17.334Z,19.84
2022-09-07T08:26:43.912Z,20.49
2022-09-07T08:29:10.483Z,19.78
2022-09-07T08:31:37.599Z,19.74
2022-09-07T08:34:04.323Z,18.97
2022-09-07T08:36:32.026Z,19.68
2022-09-07T08:38:58.827Z,19.91
2022-09-07T08:41:26.615Z,20.16
2022-09-07T08:44:01.952Z,20.15
2022-09-07T08:46:38.475Z,20.40
2022-09-07T08:49:13.350Z,20.38
2022-09-07T08:51:47.037Z,20.09
2022-09-07T08:54:16.727Z,19.93
2022-09-07T08:59:50.755Z,20.00
2022-09-07T09:02:36.861Z,20.43
2022-09-07T09:05:16.704Z,20.06
2022-09-07T09:07:50.064Z,20.63
2022-09-07T09:10:51.206Z,20.20
2022-09-07T09:13:24.150Z,20.57
2022-09-07T09:16:14.239Z,20.91
2022-09-07T09:18:51.369Z,20.68
2022-09-07T09:21:19.600Z,21.15
2022-09-07T09:23:52.408Z,20.73
2022-09-07T09:26:26.428Z,20.77
2022-09-07T09:28:53.211Z,21.11
2022-09-07T09:31:28.159Z,20.62
2022-09-07T09:34:17.324Z,20.94
2022-09-07T09:36:51.294Z,20.96
2022-09-07T09:39:30.970Z,20.88
2022-09-07T09:42:07.500Z,20.42
2022-09-07T09:44:38.226Z,20.42
2022-09-07T09:49:54.130Z,20.84
2022-09-07T09:52:33.619Z,20.80
2022-09-07T09:55:23.544Z,21.19
2022-09-07T10:03:59.746Z,22.11
2022-09-07T10:06:28.252Z,20.44
2022-09-07T10:09:00.162Z,21.60
2022-09-07T10:14:46.720Z,21.41
2022-09-07T10:17:19.258Z,21.78
2022-09-07T10:19:45.898Z,22.77
2022-09-07T10:22:47.493Z,21.50
2022-09-07T10:25:40.365Z,20.97
2022-09-07T10:28:10.116Z,21.44
2022-09-07T10:30:50.048Z,21.48
2022-09-07T10:33:28.221Z,22.05
2022-09-07T10:36:23.838Z,22.83
2022-09-07T10:39:03.341Z,22.29
2022-09-07T10:41:48.655Z,23.06
2022-09-07T10:44:31.648Z,22.95
2022-09-07T10:47:13.040Z,21.90
2022-09-07T10:52:55.844Z,24.41
2022-09-07T10:55:32.014Z,24.88
2022-09-07T11:01:22.917Z,24.89
2022-09-07T11:04:09.797Z,25.67
2022-09-07T11:06:48.354Z,25.53
2022-09-07T11:09:33.362Z,25.92
2022-09-07T11:12:05.708Z,25.36
2022-09-07T11:15:05.378Z,24.84
2022-09-07T11:17:43.665Z,26.13
2022-09-07T11:20:38.221Z,25.78
2022-09-07T11:23:23.893Z,26.07
2022-09-07T11:26:11.310Z,25.43
2022-09-07T11:29:29.060Z,26.18
2022-09-07T11:31:45.445Z,25.88
2022-09-07T11:34:24.601Z,25.26
2022-09-07T11:37:10.030Z,25.19
2022-09-07T11:39:57.267Z,24.08
2022-09-07T11:42:49.897Z,25.27
2022-09-07T11:45:22.210Z,24.83
2022-09-07T11:47:59.284Z,24.38
2022-09-07T11:50:29.408Z,25.74
2022-09-07T11:53:05.021Z,25.01
2022-09-07T11:55:37.438Z,25.90
2022-09-07T11:58:20.080Z,25.37
2022-09-07T12:00:55.477Z,25.01
2022-09-07T12:03:38.198Z,24.99
2022-09-07T12:06:20.714Z,25.95
2022-09-07T12:09:02.888Z,26.46
2022-09-07T12:12:16.695Z,26.96
2022-09-07T12:14:52.289Z,26.69
2022-09-07T12:17:47.273Z,25.33
2022-09-07T12:20:19.829Z,25.48
2022-09-07T12:23:03.637Z,26.53
2022-09-07T12:25:33.329Z,27.02
2022-09-07T12:28:01.108Z,27.02
2022-09-07T12:30:29.159Z,25.80
2022-09-07T12:32:57.713Z,25.59
2022-09-07T12:35:31.076Z,25.86
2022-09-07T12:38:02.242Z,27.21
2022-09-07T12:40:29.007Z,26.95
2022-09-07T12:43:13.983Z,27.32
2022-09-07T12:45:40.551Z,26.77
2022-09-07T12:48:16.261Z,27.07
2022-09-07T12:50:52.019Z,26.18
2022-09-07T12:53:42.541Z,26.45
2022-09-07T12:56:16.746Z,27.24
2022-09-07T12:59:00.403Z,26.71
2022-09-07T13:02:24.224Z,26.64
2022-09-07T13:05:29.248Z,27.05
2022-09-07T13:08:14.414Z,26.21
2022-09-07T13:10:43.265Z,25.91
2022-09-07T13:13:15.832Z,26.77
2022-09-07T13:15:45.850Z,27.59
2022-09-07T13:18:35.240Z,26.12
2022-09-07T13:21:08.029Z,27.37
2022-09-07T13:23:39.592Z,26.78
2022-09-07T13:26:10.743Z,26.28
2022-09-07T13:28:52.492Z,27.10
2022-09-07T13:31:52.984Z,28.14
2022-09-07T13:34:50.071Z,27.78
2022-09-07T13:37:23.040Z,28.04
2022-09-07T13:39:52.896Z,28.29
2022-09-07T13:42:26.305Z,28.35
2022-09-07T13:45:05.861Z,28.48
2022-09-07T13:48:12.674Z,26.14
2022-09-07T13:50:53.056Z,27.44
2022-09-07T13:53:38.582Z,26.52
2022-09-07T13:56:31.630Z,26.92
2022-09-07T13:58:58.509Z,27.04
2022-09-07T14:01:27.832Z,27.74
2022-09-07T14:04:07.674Z,27.85
2022-09-07T14:06:36.621Z,28.02
2022-09-07T14:09:13.252Z,27.86
2022-09-07T14:11:56.898Z,28.02
2022-09-07T14:14:30.202Z,27.99
2022-09-07T14:16:59.731Z,28.46
2022-09-07T14:19:45.340Z,28.33
2022-09-07T14:22:20.501Z,28.66
2022-09-07T14:24:48.594Z,28.36
2022-09-07T14:27:21.234Z,27.71
2022-09-07T14:29:48.422Z,28.12
2022-09-07T14:32:24.990Z,28.08
2022-09-07T14:34:52.449Z,28.12
2022-09-07T14:37:22.196Z,27.70
2022-09-07T14:39:50.753Z,28.13
2022-09-07T14:42:23.986Z,28.10
2022-09-07T14:44:51.527Z,28.22
2022-09-07T14:47:30.116Z,28.38
2022-09-07T14:50:05.166Z,28.50
2022-09-07T14:52:40.671Z,28.20
2022-09-07T14:55:25.962Z,28.52
2022-09-07T14:58:11.349Z,28.14
2022-09-07T15:00:38.892Z,27.80
2022-09-07T15:03:43.642Z,28.20
2022-09-07T15:07:00.955Z,28.06
2022-09-07T15:08:58.296Z,28.05
2022-09-07T15:11:35.406Z,27.98
2022-09-07T15:14:17.057Z,27.94
2022-09-07T15:16:44.821Z,27.91
2022-09-07T15:19:18.544Z,27.98
2022-09-07T15:21:45.570Z,27.94
2022-09-07T15:24:13.097Z,27.94
2022-09-07T15:29:32.940Z,28.07
2022-09-07T15:32:04.460Z,27.97
2022-09-07T15:34:32.463Z,27.96
2022-09-07T15:37:04.152Z,28.04
2022-09-07T15:39:49.535Z,27.94
2022-09-07T15:45:04.858Z,27.98
2022-09-07T15:50:18.371Z,27.92
2022-09-07T15:52:46.454Z,27.98
2022-09-07T15:55:14.415Z,28.01
2022-09-07T15:57:50.074Z,27.82
2022-09-07T16:00:18.504Z,27.58
2022-09-07T16:03:04.935Z,27.76
2022-09-07T16:05:32.216Z,27.90
2022-09-07T16:10:55.698Z,27.58
2022-09-07T16:13:24.132Z,27.90
2022-09-07T16:15:51.142Z,27.92
2022-09-07T16:18:18.531Z,27.88
2022-09-07T16:20:46.053Z,28.02
2022-09-07T16:23:15.530Z,28.02
2022-09-07T16:25:54.404Z,28.10
2022-09-07T16:28:21.003Z,28.05
2022-09-07T16:30:48.180Z,28.02
2022-09-07T16:33:15.401Z,27.93
2022-09-07T16:35:44.240Z,27.99
2022-09-07T16:41:02.371Z,27.95
2022-09-07T16:43:29.156Z,27.85
2022-09-07T16:46:04.551Z,27.74
2022-09-07T16:48:32.695Z,26.92
2022-09-07T16:51:02.672Z,27.33
2022-09-07T16:53:31.618Z,27.38
2022-09-07T16:56:05.912Z,27.64
2022-09-07T16:58:47.971Z,26.40
2022-09-07T17:01:17.527Z,26.69
2022-09-07T17:03:44.854Z,26.73
2022-09-07T17:06:13.792Z,26.99
2022-09-07T17:08:41.076Z,27.01
2022-09-07T17:11:16.422Z,25.52
2022-09-07T17:13:43.823Z,25.40
2022-09-07T17:16:14.680Z,26.08
2022-09-07T17:21:34.657Z,26.28
2022-09-07T17:24:04.596Z,26.12
2022-09-07T17:26:31.741Z,26.19
2022-09-07T17:29:00.615Z,26.66
2022-09-07T17:34:18.486Z,26.19
2022-09-07T17:36:45.132Z,26.36
2022-09-07T17:39:16.808Z,26.26
2022-09-07T17:41:45.080Z,26.53
2022-09-07T17:44:12.029Z,25.91
2022-09-07T17:46:39.118Z,26.00
2022-09-07T17:49:08.079Z,25.54
2022-09-07T17:51:35.807Z,25.22
2022-09-07T17:54:09.638Z,25.66
2022-09-07T17:56:37.115Z,25.36
2022-09-07T18:01:50.700Z,25.99
2022-09-07T18:04:17.639Z,25.10
2022-09-07T18:06:44.304Z,24.43
2022-09-07T18:09:11.748Z,24.50
2022-09-07T18:11:47.319Z,24.69
2022-09-07T18:14:15.341Z,24.31
2022-09-07T18:16:44.431Z,24.76
2022-09-07T18:19:15.412Z,24.56
2022-09-07T18:21:43.587Z,24.37
2022-09-07T18:24:17.166Z,24.23
2022-09-07T18:26:50.185Z,24.02
2022-09-07T18:29:28.904Z,23.73
2022-09-07T18:31:57.343Z,23.63
2022-09-07T18:34:24.223Z,23.48
2022-09-07T18:36:51.307Z,23.48
2022-09-07T18:39:18.354Z,23.48
2022-09-07T18:41:45.169Z,23.50
2022-09-07T18:46:58.705Z,23.19
2022-09-07T18:49:25.374Z,23.16
2022-09-07T18:54:42.201Z,23.35
2022-09-07T18:57:09.015Z,23.33
2022-09-07T18:59:35.699Z,23.15
2022-09-07T19:02:08.110Z,23.05
2022-09-07T19:07:26.026Z,23.18
2022-09-07T19:09:58.331Z,22.95
2022-09-07T19:12:25.043Z,22.82
2022-09-07T19:14:51.871Z,22.89
2022-09-07T19:17:19.540Z,22.90
2022-09-07T19:19:46.273Z,22.79
2022-09-07T19:22:12.963Z,22.60
2022-09-07T19:24:39.932Z,22.78
2022-09-07T19:27:07.329Z,22.68
2022-09-07T19:29:34.371Z,23.14
2022-09-07T19:32:05.345Z,23.09
2022-09-07T19:34:33.015Z,22.83
2022-09-07T19:37:00.403Z,22.77
2022-09-07T19:39:29.852Z,22.55
2022-09-07T19:41:56.678Z,22.42
2022-09-07T19:44:23.430Z,22.52
2022-09-07T19:46:50.653Z,22.35
2022-09-07T19:49:17.571Z,22.26
2022-09-07T19:51:44.530Z,22.17
2022-09-07T19:54:11.922Z,22.21
2022-09-07T19:56:40.228Z,22.27
2022-09-07T19:59:07.412Z,22.21
2022-09-07T20:01:35.204Z,21.89
2022-09-07T20:04:08.041Z,21.96
2022-09-07T20:06:37.775Z,22.53
2022-09-07T20:09:06.218Z,22.60
2022-09-07T20:11:34.674Z,22.65
2022-09-07T20:14:01.320Z,22.61
2022-09-07T20:16:28.455Z,22.62
2022-09-07T20:18:55.282Z,22.60
2022-09-07T20:21:25.940Z,22.89
2022-09-07T20:23:52.817Z,22.69
2022-09-07T20:26:21.013Z,22.54
2022-09-07T20:29:10.715Z,22.37
2022-09-07T20:31:40.812Z,22.40
2022-09-07T20:34:09.347Z,22.50
2022-09-07T20:36:36.154Z,22.54
2022-09-07T20:39:02.834Z,22.43
2022-09-07T20:41:32.001Z,22.24
2022-09-07T20:44:00.574Z,22.16
2022-09-07T20:46:29.019Z,22.26
2022-09-07T20:48:58.279Z,22.53
2022-09-07T20:51:25.130Z,22.32
2022-09-07T20:53:51.727Z,22.23
2022-09-07T20:56:19.651Z,22.27
2022-09-07T20:58:48.159Z,22.29
2022-09-07T21:01:17.907Z,22.31
2022-09-07T21:03:49.931Z,22.47
2022-09-07T21:06:17.768Z,22.33
2022-09-07T21:08:45.774Z,22.45
2022-09-07T21:11:17.841Z,22.16
2022-09-07T21:13:44.542Z,22.22
2022-09-07T21:16:16.260Z,22.16
2022-09-07T21:18:44.386Z,22.26
2022-09-07T21:21:20.600Z,22.17
2022-09-07T21:23:47.967Z,22.07
2022-09-07T21:26:15.198Z,22.17
2022-09-07T21:28:43.032Z,22.20
2022-09-07T21:31:09.863Z,22.27
2022-09-07T21:33:37.702Z,22.40
2022-09-07T21:36:05.938Z,22.34
2022-09-07T21:38:34.648Z,22.00
2022-09-07T21:41:13.217Z,22.26
2022-09-07T21:43:42.399Z,22.04
2022-09-07T21:46:11.686Z,21.87
2022-09-07T21:48:38.890Z,21.73
2022-09-07T21:51:06.168Z,21.78
2022-09-07T21:53:33.295Z,21.71
2022-09-07T21:56:05.530Z,21.79
2022-09-07T21:58:33.033Z,21.90
2022-09-07T22:01:08.144Z,21.81
2022-09-07T22:03:35.017Z,21.46
2022-09-07T22:06:02.779Z,21.51
2022-09-07T22:08:29.443Z,21.58
2022-09-07T22:11:04.093Z,21.36
2022-09-07T22:13:30.653Z,21.30
2022-09-07T22:15:57.360Z,21.53
2022-09-07T22:18:24.125Z,21.64
2022-09-07T22:21:04.485Z,21.82
2022-09-07T22:23:33.655Z,21.97
2022-09-07T22:26:00.698Z,22.06
2022-09-07T22:28:30.140Z,21.72
2022-09-07T22:31:07.208Z,21.49
2022-09-07T22:33:33.958Z,21.44
2022-09-07T22:36:17.425Z,21.67
2022-09-07T22:38:46.439Z,21.86
2022-09-07T22:41:18.436Z,21.58
2022-09-07T22:43:45.605Z,21.20
2022-09-07T22:46:13.315Z,21.20
2022-09-07T22:48:41.109Z,20.98
2022-09-07T22:51:11.128Z,21.04
2022-09-07T22:53:39.887Z,20.88
2022-09-07T22:57:19.453Z,21.24
2022-09-07T23:00:36.087Z,20.78
2022-09-07T23:18:21.359Z,20.63
2022-09-07T23:27:58.231Z,20.34
2022-09-07T23:30:24.970Z,20.31
2022-09-07T23:32:51.519Z,20.27
2022-09-07T23:35:18.136Z,20.28
2022-09-07T23:37:44.802Z,20.19
2022-09-07T23:40:11.496Z,20.15
2022-09-07T23:42:38.108Z,20.33
2022-09-07T23:45:08.743Z,20.06
2022-09-07T23:47:35.363Z,20.11
2022-09-07T23:50:02.013Z,20.27
2022-09-07T23:52:28.596Z,20.06
2022-09-07T23:54:55.325Z,20.07
2022-09-07T23:57:21.910Z,19.79
2022-09-07T23:59:48.570Z,19.81
